createdAt,value
2022-10-09T00:00:39.238Z,12.30
2022-10-09T00:03:09.398Z,12.30
2022-10-09T00:05:38.621Z,12.20
2022-10-09T00:08:08.165Z,12.20
2022-10-09T00:10:42.226Z,12.20
2022-10-09T00:13:13.848Z,12.30
2022-10-09T00:15:44.736Z,12.20
2022-10-09T00:18:16.638Z,12.20
2022-10-09T00:20:47.914Z,12.20
2022-10-09T00:23:18.819Z,12.30
2022-10-09T00:25:58.646Z,12.30
2022-10-09T00:28:35.292Z,12.30
2022-10-09T00:31:07.365Z,12.30
2022-10-09T00:33:37.198Z,12.30
2022-10-09T00:36:07.525Z,12.20
2022-10-09T00:38:36.855Z,12.20
2022-10-09T00:41:06.590Z,12.10
2022-10-09T00:43:44.317Z,12.00
2022-10-09T00:46:26.407Z,11.70
2022-10-09T00:49:02.003Z,11.60
2022-10-09T00:51:33.062Z,11.40
2022-10-09T00:54:04.017Z,11.20
2022-10-09T00:56:33.974Z,11.10
2022-10-09T00:59:06.646Z,11.00
2022-10-09T01:01:36.681Z,10.90
2022-10-09T01:04:05.906Z,10.80
2022-10-09T01:06:46.800Z,10.70
2022-10-09T01:09:20.587Z,10.60
2022-10-09T01:11:58.785Z,10.60
2022-10-09T01:14:34.326Z,10.50
2022-10-09T01:17:13.086Z,10.50
2022-10-09T01:20:06.698Z,10.50
2022-10-09T01:22:47.819Z,10.50
2022-10-09T01:25:27.094Z,10.60
2022-10-09T01:27:59.415Z,10.50
2022-10-09T01:30:29.090Z,10.40
2022-10-09T01:32:58.918Z,10.40
2022-10-09T01:35:28.800Z,10.40
2022-10-09T01:38:00.218Z,10.40
2022-10-09T01:40:30.798Z,10.50
2022-10-09T01:43:02.726Z,10.50
2022-10-09T01:45:40.333Z,10.50
2022-10-09T01:48:14.773Z,10.60
2022-10-09T01:50:47.518Z,10.70
2022-10-09T01:53:20.293Z,10.70
2022-10-09T01:55:55.079Z,10.80
2022-10-09T01:58:32.786Z,10.90
2022-10-09T02:01:07.586Z,10.90
2022-10-09T02:03:40.286Z,11.00
2022-10-09T02:06:13.325Z,11.00
2022-10-09T02:08:43.666Z,11.10
2022-10-09T02:11:12.508Z,11.10
2022-10-09T02:13:43.726Z,11.20
2022-10-09T02:16:20.273Z,11.10
2022-10-09T02:18:55.917Z,11.20
2022-10-09T02:21:28.766Z,11.20
2022-10-09T02:23:59.202Z,11.30
2022-10-09T02:26:29.396Z,11.30
2022-10-09T02:29:00.090Z,11.40
2022-10-09T02:31:30.896Z,11.40
2022-10-09T02:34:01.088Z,11.40
2022-10-09T02:36:31.726Z,11.40
2022-10-09T02:39:01.065Z,11.50
2022-10-09T02:41:30.278Z,11.40
2022-10-09T02:44:00.647Z,11.40
2022-10-09T02:46:29.876Z,11.20
2022-10-09T02:48:59.005Z,11.00
2022-10-09T02:51:28.436Z,10.90
2022-10-09T02:53:59.785Z,10.80
2022-10-09T02:56:38.939Z,10.80
2022-10-09T02:59:09.779Z,10.80
2022-10-09T03:01:45.386Z,10.70
2022-10-09T03:04:14.398Z,10.60
2022-10-09T03:06:50.366Z,10.40
2022-10-09T03:09:19.226Z,10.30
2022-10-09T03:11:48.237Z,10.20
2022-10-09T03:14:18.778Z,10.10
2022-10-09T03:16:47.708Z,10.00
2022-10-09T03:19:16.574Z,9.90
2022-10-09T03:21:45.530Z,9.80
2022-10-09T03:24:14.593Z,9.80
2022-10-09T03:26:43.612Z,9.70
2022-10-09T03:29:12.560Z,9.70
2022-10-09T03:31:58.417Z,9.70
2022-10-09T03:34:27.421Z,9.70
2022-10-09T03:36:56.283Z,9.90
2022-10-09T03:39:25.185Z,10.10
2022-10-09T03:41:54.139Z,10.30
2022-10-09T03:44:23.100Z,10.40
2022-10-09T03:46:54.153Z,10.50
2022-10-09T03:49:23.287Z,10.70
2022-10-09T03:51:52.398Z,10.80
2022-10-09T03:54:21.314Z,10.90
2022-10-09T03:56:50.319Z,10.90
2022-10-09T03:59:19.220Z,11.00
2022-10-09T04:01:48.238Z,11.10
2022-10-09T04:04:18.867Z,11.10
2022-10-09T04:06:47.959Z,11.10
2022-10-09T04:09:16.838Z,11.10
2022-10-09T04:11:45.726Z,11.20
2022-10-09T04:14:14.797Z,11.20
2022-10-09T04:16:43.963Z,11.30
2022-10-09T04:19:13.498Z,11.30
2022-10-09T04:21:43.946Z,11.40
2022-10-09T04:24:12.877Z,11.40
2022-10-09T04:26:41.866Z,11.40
2022-10-09T04:29:10.846Z,11.40
2022-10-09T04:31:39.851Z,11.40
2022-10-09T04:34:09.055Z,11.30
2022-10-09T04:36:38.094Z,11.30
2022-10-09T04:39:08.694Z,11.30
2022-10-09T04:41:38.608Z,11.30
2022-10-09T04:44:07.698Z,11.40
2022-10-09T04:46:36.839Z,11.40
2022-10-09T04:49:05.978Z,11.40
2022-10-09T04:51:35.298Z,11.30
2022-10-09T04:54:04.241Z,11.30
2022-10-09T04:56:34.987Z,11.40
2022-10-09T04:59:03.860Z,11.40
2022-10-09T05:01:38.086Z,11.40
2022-10-09T05:04:07.439Z,11.40
2022-10-09T05:06:36.437Z,11.40
2022-10-09T05:09:05.666Z,11.50
2022-10-09T05:11:40.440Z,11.50
2022-10-09T05:14:11.596Z,11.60
2022-10-09T05:17:08.433Z,11.50
2022-10-09T05:19:29.519Z,11.50
2022-10-09T05:21:58.781Z,11.50
2022-10-09T05:24:27.852Z,11.50
2022-10-09T05:26:58.251Z,11.50
2022-10-09T05:29:27.240Z,11.50
2022-10-09T05:31:56.287Z,11.60
2022-10-09T05:34:25.399Z,11.60
2022-10-09T05:36:54.387Z,11.70
2022-10-09T05:39:23.380Z,11.70
2022-10-09T05:41:52.327Z,11.70
2022-10-09T05:44:22.778Z,11.60
2022-10-09T05:46:51.809Z,11.60
2022-10-09T05:49:20.730Z,11.60
2022-10-09T05:51:50.338Z,11.60
2022-10-09T05:54:20.040Z,11.70
2022-10-09T05:56:49.504Z,11.70
2022-10-09T05:59:20.520Z,11.70
2022-10-09T06:01:52.907Z,11.80
2022-10-09T06:04:23.953Z,11.70
2022-10-09T06:06:53.381Z,11.70
2022-10-09T06:09:24.469Z,11.80
2022-10-09T06:11:54.264Z,11.90
2022-10-09T06:14:24.628Z,12.10
2022-10-09T06:16:55.143Z,12.00
2022-10-09T06:19:24.078Z,12.00
2022-10-09T06:21:53.168Z,12.10
2022-10-09T06:24:28.311Z,11.90
2022-10-09T06:26:58.220Z,11.80
2022-10-09T06:29:27.662Z,11.80
2022-10-09T06:31:58.411Z,11.70
2022-10-09T06:34:27.316Z,11.90
2022-10-09T06:36:56.541Z,12.00
2022-10-09T06:39:26.757Z,12.10
2022-10-09T06:41:56.064Z,12.40
2022-10-09T06:44:25.006Z,12.30
2022-10-09T06:46:53.942Z,12.40
2022-10-09T06:49:28.924Z,12.50
2022-10-09T06:51:57.947Z,12.60
2022-10-09T06:54:26.878Z,12.70
2022-10-09T06:56:56.885Z,12.80
2022-10-09T06:59:25.998Z,12.80
2022-10-09T07:01:57.089Z,12.70
2022-10-09T07:04:27.741Z,12.80
2022-10-09T07:06:56.551Z,12.90
2022-10-09T07:09:25.557Z,13.00
2022-10-09T07:11:54.514Z,12.90
2022-10-09T07:14:23.750Z,12.90
2022-10-09T07:16:53.985Z,13.00
2022-10-09T07:19:23.237Z,13.10
2022-10-09T07:21:53.737Z,13.10
2022-10-09T07:24:24.940Z,13.20
2022-10-09T07:26:55.673Z,13.30
2022-10-09T07:29:24.696Z,13.40
2022-10-09T07:31:53.675Z,13.50
2022-10-09T07:34:22.878Z,13.40
2022-10-09T07:36:53.246Z,13.30
2022-10-09T07:39:22.467Z,13.50
2022-10-09T07:41:52.662Z,13.60
2022-10-09T07:44:21.615Z,13.70
2022-10-09T07:46:52.176Z,13.70
2022-10-09T07:49:21.275Z,13.90
2022-10-09T07:51:50.149Z,13.60
2022-10-09T07:54:20.632Z,13.40
2022-10-09T07:56:49.610Z,13.40
2022-10-09T07:59:19.023Z,13.60
2022-10-09T08:01:47.997Z,13.90
2022-10-09T08:04:17.059Z,14.00
2022-10-09T08:06:46.038Z,14.20
2022-10-09T08:09:15.119Z,14.10
2022-10-09T08:11:45.585Z,14.10
2022-10-09T08:14:19.296Z,13.90
2022-10-09T08:16:48.938Z,14.10
2022-10-09T08:19:17.961Z,14.30
2022-10-09T08:21:46.844Z,14.20
2022-10-09T08:24:16.078Z,14.00
2022-10-09T08:26:46.510Z,14.40
2022-10-09T08:29:16.846Z,14.70
2022-10-09T08:31:46.586Z,15.00
2022-10-09T08:34:15.662Z,15.30
2022-10-09T08:36:44.779Z,15.20
2022-10-09T08:39:14.330Z,14.80
2022-10-09T08:41:49.909Z,14.90
2022-10-09T08:44:26.811Z,15.30
2022-10-09T08:47:05.402Z,15.40
2022-10-09T08:49:42.242Z,15.30
2022-10-09T08:52:26.165Z,15.60
2022-10-09T08:54:57.632Z,15.70
2022-10-09T08:57:31.127Z,15.90
2022-10-09T09:00:00.160Z,15.80
2022-10-09T09:02:43.039Z,15.80
2022-10-09T09:05:25.618Z,15.80
2022-10-09T09:08:01.501Z,15.90
2022-10-09T09:10:41.636Z,16.20
2022-10-09T09:13:41.327Z,16.00
2022-10-09T09:16:16.932Z,15.90
2022-10-09T09:18:53.126Z,15.80
2022-10-09T09:21:36.878Z,15.50
2022-10-09T09:24:14.099Z,14.90
2022-10-09T09:26:45.018Z,14.80
2022-10-09T09:29:19.655Z,14.60
2022-10-09T09:31:49.766Z,15.00
2022-10-09T09:34:26.227Z,15.00
2022-10-09T09:36:58.360Z,15.00
2022-10-09T09:42:23.382Z,15.50
2022-10-09T09:45:00.301Z,15.60
2022-10-09T09:47:35.000Z,15.70
2022-10-09T09:50:05.648Z,16.00
2022-10-09T09:52:38.580Z,15.60
2022-10-09T09:55:08.838Z,15.80
2022-10-09T09:57:41.119Z,15.80
2022-10-09T10:00:21.580Z,15.80
2022-10-09T10:02:51.156Z,16.10
2022-10-09T10:05:26.508Z,16.20
2022-10-09T10:07:57.882Z,16.00
2022-10-09T10:10:29.007Z,16.40
2022-10-09T10:12:59.778Z,16.50
2022-10-09T10:15:31.842Z,16.50
2022-10-09T10:18:03.759Z,16.50
2022-10-09T10:20:34.526Z,16.80
2022-10-09T10:23:03.488Z,16.70
2022-10-09T10:25:35.642Z,16.40
2022-10-09T10:28:13.387Z,16.10
2022-10-09T10:30:45.158Z,15.90
2022-10-09T10:33:20.719Z,16.00
2022-10-09T10:35:53.838Z,16.10
2022-10-09T10:38:27.140Z,16.50
2022-10-09T10:41:03.727Z,16.90
2022-10-09T10:43:40.741Z,17.20
2022-10-09T10:46:18.950Z,17.00
2022-10-09T10:48:50.466Z,16.70
2022-10-09T10:51:51.261Z,16.60
2022-10-09T10:54:34.639Z,16.30
2022-10-09T10:57:12.078Z,16.00
2022-10-09T10:59:45.503Z,15.60
2022-10-09T11:02:41.120Z,15.70
2022-10-09T11:05:48.060Z,15.70
2022-10-09T11:08:42.099Z,16.10
2022-10-09T11:11:19.566Z,16.50
2022-10-09T11:13:57.796Z,16.60
2022-10-09T11:16:45.691Z,16.20
2022-10-09T11:19:27.968Z,16.00
2022-10-09T11:22:04.420Z,15.50
2022-10-09T11:24:51.481Z,15.20
2022-10-09T11:27:24.706Z,15.20
2022-10-09T11:29:58.526Z,15.30
2022-10-09T11:32:33.893Z,15.40
2022-10-09T11:35:09.658Z,15.50
2022-10-09T11:37:40.940Z,15.70
2022-10-09T11:40:16.568Z,15.80
2022-10-09T11:42:50.657Z,16.10
2022-10-09T11:45:27.655Z,16.50
2022-10-09T11:48:04.897Z,16.30
2022-10-09T11:50:44.369Z,16.30
2022-10-09T11:53:16.478Z,16.30
2022-10-09T11:55:46.406Z,16.30
2022-10-09T11:58:25.448Z,16.40
2022-10-09T12:00:57.085Z,16.40
2022-10-09T12:03:33.786Z,16.40
2022-10-09T12:06:10.682Z,16.50
2022-10-09T12:08:42.627Z,16.60
2022-10-09T12:11:16.809Z,17.10
2022-10-09T12:13:50.038Z,17.40
2022-10-09T12:16:37.886Z,17.30
2022-10-09T12:19:15.259Z,16.70
2022-10-09T12:21:51.046Z,16.70
2022-10-09T12:24:23.886Z,16.40
2022-10-09T12:26:55.641Z,16.50
2022-10-09T12:29:29.348Z,16.70
2022-10-09T12:32:03.460Z,16.90
2022-10-09T12:34:37.949Z,17.10
2022-10-09T12:37:15.186Z,17.00
2022-10-09T12:39:44.540Z,16.50
2022-10-09T12:42:23.438Z,16.60
2022-10-09T12:44:55.759Z,16.70
2022-10-09T12:47:28.338Z,17.00
2022-10-09T12:49:59.408Z,17.10
2022-10-09T12:52:30.758Z,17.20
2022-10-09T12:54:59.938Z,17.40
2022-10-09T12:57:29.599Z,17.20
2022-10-09T12:59:59.300Z,16.80
2022-10-09T13:02:28.540Z,16.40
2022-10-09T13:05:00.818Z,16.00
2022-10-09T13:07:32.899Z,15.80
2022-10-09T13:10:05.498Z,15.70
2022-10-09T13:12:35.660Z,15.60
2022-10-09T13:15:05.974Z,15.50
2022-10-09T13:17:36.798Z,15.30
2022-10-09T13:20:25.378Z,15.30
2022-10-09T13:23:00.498Z,15.20
2022-10-09T13:25:34.015Z,15.10
2022-10-09T13:28:04.103Z,14.90
2022-10-09T13:30:33.224Z,14.70
2022-10-09T13:33:02.288Z,14.70
2022-10-09T13:35:31.235Z,14.70
2022-10-09T13:38:01.663Z,15.30
2022-10-09T13:40:30.587Z,15.90
2022-10-09T13:43:04.490Z,16.20
2022-10-09T13:45:33.419Z,16.40
2022-10-09T13:48:02.260Z,16.70
2022-10-09T13:50:31.539Z,16.80
2022-10-09T13:53:02.209Z,16.80
2022-10-09T13:55:31.206Z,16.90
2022-10-09T13:58:00.166Z,17.10
2022-10-09T14:00:29.702Z,17.10
2022-10-09T14:02:58.674Z,17.10
2022-10-09T14:05:28.178Z,16.90
2022-10-09T14:07:57.159Z,16.70
2022-10-09T14:10:27.598Z,16.20
2022-10-09T14:12:56.600Z,15.80
2022-10-09T14:15:25.582Z,15.50
2022-10-09T14:17:54.591Z,15.10
2022-10-09T14:20:25.488Z,14.80
2022-10-09T14:22:54.378Z,14.60
2022-10-09T14:25:23.454Z,14.40
2022-10-09T14:27:53.803Z,14.20
2022-10-09T14:30:22.846Z,14.10
2022-10-09T14:32:52.163Z,13.90
2022-10-09T14:35:21.768Z,13.80
2022-10-09T14:37:51.017Z,13.70
2022-10-09T14:40:20.037Z,13.50
2022-10-09T14:42:49.074Z,13.50
2022-10-09T14:45:19.740Z,13.30
2022-10-09T14:47:48.625Z,13.30
2022-10-09T14:50:17.607Z,13.20
2022-10-09T14:52:46.631Z,13.10
2022-10-09T14:55:16.184Z,13.00
2022-10-09T14:57:45.053Z,13.00
2022-10-09T15:00:15.320Z,12.80
2022-10-09T15:02:45.671Z,12.70
2022-10-09T15:05:14.554Z,12.60
2022-10-09T15:07:43.437Z,12.50
2022-10-09T15:10:12.679Z,12.50
2022-10-09T15:12:41.608Z,12.30
2022-10-09T15:15:11.645Z,12.30
2022-10-09T15:17:40.829Z,12.20
2022-10-09T15:20:11.827Z,12.10
2022-10-09T15:22:40.742Z,11.90
2022-10-09T15:25:10.549Z,11.90
2022-10-09T15:27:39.596Z,11.70
2022-10-09T15:30:10.286Z,11.70
2022-10-09T15:32:39.580Z,11.50
2022-10-09T15:35:11.267Z,11.50
2022-10-09T15:37:40.735Z,11.40
2022-10-09T15:40:10.718Z,11.20
2022-10-09T15:42:41.900Z,11.10
2022-10-09T15:45:11.400Z,11.00
2022-10-09T15:47:51.008Z,10.90
2022-10-09T15:50:22.001Z,10.80
2022-10-09T15:52:51.111Z,10.70
2022-10-09T15:55:20.338Z,10.60
2022-10-09T15:57:49.769Z,10.50
2022-10-09T16:00:19.138Z,10.40
2022-10-09T16:02:48.384Z,10.30
2022-10-09T16:05:18.121Z,10.20
2022-10-09T16:07:48.928Z,10.10
2022-10-09T16:10:17.917Z,10.00
2022-10-09T16:12:47.518Z,9.90
2022-10-09T16:15:16.982Z,9.80
2022-10-09T16:17:48.958Z,9.80
2022-10-09T16:20:18.230Z,9.70
2022-10-09T16:22:48.984Z,9.60
2022-10-09T16:25:18.261Z,9.60
2022-10-09T16:27:47.220Z,9.50
2022-10-09T16:30:16.998Z,9.50
2022-10-09T16:32:48.157Z,9.40
2022-10-09T16:35:17.778Z,9.30
2022-10-09T16:37:48.156Z,9.30
2022-10-09T16:40:17.180Z,9.20
2022-10-09T16:42:46.731Z,9.10
2022-10-09T16:45:15.765Z,9.00
2022-10-09T16:47:45.926Z,9.00
2022-10-09T16:50:14.820Z,8.90
2022-10-09T16:52:43.838Z,8.80
2022-10-09T16:55:14.347Z,8.80
2022-10-09T16:57:43.280Z,8.70
2022-10-09T17:00:16.049Z,8.70
2022-10-09T17:02:47.190Z,8.60
2022-10-09T17:05:16.154Z,8.60
2022-10-09T17:07:45.426Z,8.50
2022-10-09T17:10:16.041Z,8.50
2022-10-09T17:12:45.258Z,8.40
2022-10-09T17:15:14.318Z,8.40
2022-10-09T17:17:43.526Z,8.30
2022-10-09T17:20:13.247Z,8.30
2022-10-09T17:22:42.318Z,8.30
2022-10-09T17:25:13.341Z,8.20
2022-10-09T17:27:43.786Z,8.20
2022-10-09T17:30:13.857Z,8.20
2022-10-09T17:32:42.963Z,8.10
2022-10-09T17:35:12.021Z,8.10
2022-10-09T17:37:41.262Z,8.10
2022-10-09T17:40:11.626Z,8.10
2022-10-09T17:42:40.647Z,8.00
2022-10-09T17:45:12.186Z,8.00
2022-10-09T17:47:41.238Z,8.00
2022-10-09T17:50:11.001Z,7.90
2022-10-09T17:52:40.495Z,8.00
2022-10-09T17:55:11.027Z,7.90
2022-10-09T17:57:40.639Z,7.90
2022-10-09T18:00:12.943Z,7.80
2022-10-09T18:02:42.314Z,7.90
2022-10-09T18:05:11.780Z,7.80
2022-10-09T18:07:41.078Z,7.80
2022-10-09T18:10:10.659Z,7.80
2022-10-09T18:12:40.502Z,7.80
2022-10-09T18:15:12.404Z,7.70
2022-10-09T18:17:41.748Z,7.70
2022-10-09T18:20:11.198Z,7.60
2022-10-09T18:22:40.621Z,7.60
2022-10-09T18:25:10.126Z,7.60
2022-10-09T18:27:39.478Z,7.60
2022-10-09T18:30:09.779Z,7.50
2022-10-09T18:32:40.726Z,7.50
2022-10-09T18:35:10.739Z,7.50
2022-10-09T18:37:40.018Z,7.40
2022-10-09T18:40:11.081Z,7.40
2022-10-09T18:42:40.553Z,7.40
2022-10-09T18:45:12.004Z,7.40
2022-10-09T18:47:43.419Z,7.30
2022-10-09T18:50:15.718Z,7.30
2022-10-09T18:52:45.898Z,7.30
2022-10-09T18:55:18.806Z,7.20
2022-10-09T18:57:49.218Z,7.20
2022-10-09T19:00:19.059Z,7.20
2022-10-09T19:02:49.546Z,7.20
2022-10-09T19:05:18.818Z,7.10
2022-10-09T19:07:48.000Z,7.10
2022-10-09T19:10:17.527Z,7.00
2022-10-09T19:12:46.861Z,6.90
2022-10-09T19:15:16.100Z,6.90
2022-10-09T19:17:45.485Z,6.90
2022-10-09T19:20:16.227Z,6.80
2022-10-09T19:22:45.460Z,6.80
2022-10-09T19:25:14.858Z,6.70
2022-10-09T19:27:44.590Z,6.70
2022-10-09T19:30:15.403Z,6.60
2022-10-09T19:32:44.508Z,6.60
2022-10-09T19:35:15.560Z,6.60
2022-10-09T19:37:44.946Z,6.50
2022-10-09T19:40:13.932Z,6.40
2022-10-09T19:42:43.228Z,6.40
2022-10-09T19:45:12.640Z,6.40
2022-10-09T19:47:41.938Z,6.30
2022-10-09T19:50:11.458Z,6.20
2022-10-09T19:52:42.179Z,6.20
2022-10-09T19:55:18.198Z,6.20
2022-10-09T19:57:47.582Z,6.10
2022-10-09T20:00:17.300Z,6.10
2022-10-09T20:02:46.587Z,6.10
2022-10-09T20:05:15.819Z,6.00
2022-10-09T20:07:46.715Z,6.00
2022-10-09T20:10:15.928Z,6.00
2022-10-09T20:12:44.874Z,5.70
2022-10-09T20:15:13.978Z,5.90
2022-10-09T20:17:42.872Z,5.80
2022-10-09T20:20:12.498Z,5.80
2022-10-09T20:22:41.386Z,5.70
2022-10-09T20:25:12.076Z,5.70
2022-10-09T20:27:40.899Z,5.60
2022-10-09T20:30:11.007Z,5.60
2022-10-09T20:32:39.899Z,5.50
2022-10-09T20:35:09.772Z,5.50
2022-10-09T20:37:39.281Z,5.50
2022-10-09T20:40:08.868Z,5.40
2022-10-09T20:42:39.495Z,5.40
2022-10-09T20:45:09.066Z,5.30
2022-10-09T20:47:38.098Z,5.30
2022-10-09T20:50:07.818Z,5.30
2022-10-09T20:52:36.678Z,5.20
2022-10-09T20:55:05.967Z,5.20
2022-10-09T20:57:34.966Z,5.20
2022-10-09T21:00:06.435Z,5.10
2022-10-09T21:02:35.512Z,5.10
2022-10-09T21:05:04.574Z,5.10
2022-10-09T21:07:33.858Z,5.10
2022-10-09T21:10:02.853Z,5.00
2022-10-09T21:12:31.883Z,5.00
2022-10-09T21:15:00.864Z,5.00
2022-10-09T21:17:31.165Z,4.90
2022-10-09T21:20:00.061Z,4.90
2022-10-09T21:22:28.994Z,4.90
2022-10-09T21:24:58.177Z,4.90
2022-10-09T21:27:27.126Z,4.80
2022-10-09T21:29:56.127Z,4.80
2022-10-09T21:32:25.159Z,4.80
2022-10-09T21:34:55.471Z,4.70
2022-10-09T21:37:24.448Z,4.70
2022-10-09T21:39:53.853Z,4.60
2022-10-09T21:42:22.767Z,4.60
2022-10-09T21:44:51.784Z,4.50
2022-10-09T21:47:20.939Z,4.50
2022-10-09T21:49:49.886Z,4.50
2022-10-09T21:52:20.511Z,4.40
2022-10-09T21:54:49.479Z,4.40
2022-10-09T21:57:18.316Z,4.40
2022-10-09T21:59:47.366Z,4.30
2022-10-09T22:02:16.347Z,4.30
2022-10-09T22:04:45.287Z,4.30
2022-10-09T22:07:14.218Z,4.30
2022-10-09T22:09:45.049Z,4.30
2022-10-09T22:12:14.231Z,4.30
2022-10-09T22:14:43.246Z,4.30
2022-10-09T22:17:12.155Z,4.30
2022-10-09T22:19:41.117Z,4.30
2022-10-09T22:22:10.000Z,4.30
2022-10-09T22:24:38.971Z,4.20
2022-10-09T22:27:09.319Z,4.20
2022-10-09T22:29:38.966Z,4.20
2022-10-09T22:32:09.035Z,4.10
2022-10-09T22:34:38.622Z,4.10
2022-10-09T22:37:07.598Z,4.10
2022-10-09T22:39:37.478Z,4.10
2022-10-09T22:42:06.527Z,4.10
2022-10-09T22:44:37.086Z,4.10
2022-10-09T22:47:06.102Z,4.00
2022-10-09T22:49:35.088Z,4.10
2022-10-09T22:52:04.035Z,4.00
2022-10-09T22:54:33.019Z,4.00
2022-10-09T22:57:01.931Z,3.90
2022-10-09T22:59:30.998Z,4.00
2022-10-09T23:02:01.474Z,3.90
2022-10-09T23:04:30.597Z,3.90
2022-10-09T23:07:01.200Z,3.90
2022-10-09T23:09:31.716Z,3.90
2022-10-09T23:12:01.606Z,3.80
2022-10-09T23:14:30.586Z,3.80
2022-10-09T23:17:00.967Z,3.80
2022-10-09T23:19:29.998Z,3.80
2022-10-09T23:21:58.888Z,3.80
2022-10-09T23:24:27.916Z,3.70
2022-10-09T23:26:56.860Z,3.70
2022-10-09T23:29:25.719Z,4.00
2022-10-09T23:31:54.840Z,3.70
2022-10-09T23:34:25.244Z,3.70
2022-10-09T23:36:54.235Z,3.70
2022-10-09T23:39:23.139Z,3.70
2022-10-09T23:41:52.207Z,3.70
2022-10-09T23:44:22.285Z,3.70
2022-10-09T23:46:51.587Z,3.70
2022-10-09T23:49:20.647Z,3.60
2022-10-09T23:51:51.167Z,3.60
2022-10-09T23:54:20.106Z,3.60
2022-10-09T23:56:54.133Z,3.60
2022-10-09T23:59:23.099Z,3.60
